sensor_id;sensor_type;location;lat;lon;timestamp;pressure;altitude;pressure_sealevel;temperature;humidity
79645;BME280;69117;47.148;18.954;2024-02-14T00:02:24;100958.78;;;1.91;100.00
79645;BME280;69117;47.148;18.954;2024-02-14T00:05:27;100966.28;;;2.15;100.00
79645;BME280;69117;47.148;18.954;2024-02-14T00:08:30;100954.72;;;2.20;100.00
79645;BME280;69117;47.148;18.954;2024-02-14T00:11:32;100964.47;;;2.34;100.00
79645;BME280;69117;47.148;18.954;2024-02-14T00:14:33;100959.56;;;2.45;100.00
79645;BME280;69117;47.148;18.954;2024-02-14T00:17:35;100963.75;;;2.65;100.00
79645;BME280;69117;47.148;18.954;2024-02-14T00:20:37;100974.28;;;2.64;100.00
79645;BME280;69117;47.148;18.954;2024-02-14T00:23:40;100966.06;;;2.54;100.00
79645;BME280;69117;47.148;18.954;2024-02-14T00:26:42;100968.66;;;2.54;100.00
79645;BME280;69117;47.148;18.954;2024-02-14T00:29:43;100967.00;;;2.53;100.00
79645;BME280;69117;47.148;18.954;2024-02-14T00:32:46;100969.06;;;2.46;100.00
79645;BME280;69117;47.148;18.954;2024-02-14T00:35:48;100958.47;;;2.32;100.00
79645;BME280;69117;47.148;18.954;2024-02-14T00:38:50;100970.06;;;2.26;100.00
79645;BME280;69117;47.148;18.954;2024-02-14T00:41:52;100963.84;;;2.29;100.00
79645;BME280;69117;47.148;18.954;2024-02-14T00:44:54;100969.91;;;2.47;100.00
79645;BME280;69117;47.148;18.954;2024-02-14T00:47:56;100974.44;;;2.61;100.00
79645;BME280;69117;47.148;18.954;2024-02-14T00:50:58;100966.84;;;2.56;100.00
79645;BME280;69117;47.148;18.954;2024-02-14T00:54:00;100973.50;;;2.44;100.00
79645;BME280;69117;47.148;18.954;2024-02-14T00:57:02;100982.88;;;2.31;100.00
79645;BME280;69117;47.148;18.954;2024-02-14T01:00:05;100976.31;;;2.05;100.00
79645;BME280;69117;47.148;18.954;2024-02-14T01:03:08;100986.19;;;1.98;100.00
79645;BME280;69117;47.148;18.954;2024-02-14T01:06:14;100996.56;;;1.81;100.00
79645;BME280;69117;47.148;18.954;2024-02-14T01:09:18;100995.25;;;1.53;100.00
79645;BME280;69117;47.148;18.954;2024-02-14T01:12:20;100986.09;;;1.26;100.00
79645;BME280;69117;47.148;18.954;2024-02-14T01:15:22;100990.63;;;1.22;100.00
79645;BME280;69117;47.148;18.954;2024-02-14T01:18:23;100992.50;;;1.19;100.00
79645;BME280;69117;47.148;18.954;2024-02-14T01:21:25;100996.91;;;0.98;100.00
79645;BME280;69117;47.148;18.954;2024-02-14T01:24:27;100988.53;;;0.91;100.00
79645;BME280;69117;47.148;18.954;2024-02-14T01:27:31;100981.72;;;0.88;100.00
79645;BME280;69117;47.148;18.954;2024-02-14T01:30:33;100978.75;;;0.96;100.00
79645;BME280;69117;47.148;18.954;2024-02-14T01:33:34;100971.56;;;1.41;100.00
79645;BME280;69117;47.148;18.954;2024-02-14T01:36:36;100971.84;;;1.90;100.00
79645;BME280;69117;47.148;18.954;2024-02-14T01:39:40;100971.66;;;2.12;100.00
79645;BME280;69117;47.148;18.954;2024-02-14T01:42:41;100969.22;;;2.26;100.00
79645;BME280;69117;47.148;18.954;2024-02-14T01:45:46;100966.06;;;2.19;100.00
79645;BME280;69117;47.148;18.954;2024-02-14T01:48:47;100976.25;;;2.24;100.00
79645;BME280;69117;47.148;18.954;2024-02-14T01:51:50;100965.84;;;2.24;100.00
79645;BME280;69117;47.148;18.954;2024-02-14T01:54:53;100970.00;;;2.28;100.00
79645;BME280;69117;47.148;18.954;2024-02-14T01:57:56;100968.97;;;2.13;100.00
79645;BME280;69117;47.148;18.954;2024-02-14T02:00:58;100976.50;;;2.19;100.00
79645;BME280;69117;47.148;18.954;2024-02-14T02:04:02;100977.59;;;2.15;100.00
79645;BME280;69117;47.148;18.954;2024-02-14T02:07:04;100980.41;;;2.28;100.00
79645;BME280;69117;47.148;18.954;2024-02-14T02:10:06;100984.78;;;2.45;100.00
79645;BME280;69117;47.148;18.954;2024-02-14T02:13:08;100980.66;;;2.41;100.00
79645;BME280;69117;47.148;18.954;2024-02-14T02:16:10;100975.59;;;2.55;100.00
79645;BME280;69117;47.148;18.954;2024-02-14T02:19:13;100990.69;;;2.66;100.00
79645;BME280;69117;47.148;18.954;2024-02-14T02:22:17;100985.94;;;2.57;100.00
79645;BME280;69117;47.148;18.954;2024-02-14T02:25:19;100988.78;;;2.52;100.00
79645;BME280;69117;47.148;18.954;2024-02-14T02:28:25;100992.16;;;2.37;100.00
79645;BME280;69117;47.148;18.954;2024-02-14T02:31:27;100994.44;;;2.25;100.00
79645;BME280;69117;47.148;18.954;2024-02-14T02:34:28;100993.59;;;2.25;100.00
79645;BME280;69117;47.148;18.954;2024-02-14T02:37:30;101000.66;;;2.23;100.00
79645;BME280;69117;47.148;18.954;2024-02-14T02:40:33;100990.47;;;1.99;100.00
79645;BME280;69117;47.148;18.954;2024-02-14T02:43:35;101014.28;;;2.11;100.00
79645;BME280;69117;47.148;18.954;2024-02-14T02:46:37;101018.41;;;2.15;100.00
79645;BME280;69117;47.148;18.954;2024-02-14T02:49:38;101017.69;;;2.30;100.00
79645;BME280;69117;47.148;18.954;2024-02-14T02:52:40;101003.28;;;2.40;100.00
79645;BME280;69117;47.148;18.954;2024-02-14T02:55:43;101024.81;;;2.44;100.00
79645;BME280;69117;47.148;18.954;2024-02-14T02:58:44;101021.28;;;2.45;100.00
79645;BME280;69117;47.148;18.954;2024-02-14T03:01:46;101016.06;;;2.45;100.00
79645;BME280;69117;47.148;18.954;2024-02-14T03:04:48;101010.78;;;2.46;100.00
79645;BME280;69117;47.148;18.954;2024-02-14T03:07:53;101014.78;;;2.53;100.00
79645;BME280;69117;47.148;18.954;2024-02-14T03:10:55;101026.28;;;2.49;100.00
79645;BME280;69117;47.148;18.954;2024-02-14T03:13:57;101031.03;;;2.41;100.00
79645;BME280;69117;47.148;18.954;2024-02-14T03:17:00;101047.06;;;2.34;100.00
79645;BME280;69117;47.148;18.954;2024-02-14T03:20:03;101038.13;;;2.20;100.00
79645;BME280;69117;47.148;18.954;2024-02-14T03:23:10;101035.25;;;2.08;100.00
79645;BME280;69117;47.148;18.954;2024-02-14T03:26:11;101038.72;;;2.08;100.00
79645;BME280;69117;47.148;18.954;2024-02-14T03:29:13;101069.63;;;2.16;100.00
79645;BME280;69117;47.148;18.954;2024-02-14T03:32:14;101061.53;;;2.22;100.00
79645;BME280;69117;47.148;18.954;2024-02-14T03:35:16;101073.84;;;2.18;100.00
79645;BME280;69117;47.148;18.954;2024-02-14T03:38:26;101069.91;;;2.10;100.00
79645;BME280;69117;47.148;18.954;2024-02-14T03:41:28;101067.47;;;2.06;100.00
79645;BME280;69117;47.148;18.954;2024-02-14T03:44:29;101091.09;;;2.02;100.00
79645;BME280;69117;47.148;18.954;2024-02-14T03:47:33;101090.97;;;1.86;100.00
79645;BME280;69117;47.148;18.954;2024-02-14T03:50:35;101095.97;;;1.72;100.00
79645;BME280;69117;47.148;18.954;2024-02-14T03:53:37;101094.00;;;1.58;100.00
79645;BME280;69117;47.148;18.954;2024-02-14T03:56:39;101098.97;;;1.44;100.00
79645;BME280;69117;47.148;18.954;2024-02-14T03:59:42;101095.34;;;1.27;100.00
79645;BME280;69117;47.148;18.954;2024-02-14T04:02:44;101107.75;;;1.21;100.00
79645;BME280;69117;47.148;18.954;2024-02-14T04:05:46;101114.81;;;1.19;100.00
79645;BME280;69117;47.148;18.954;2024-02-14T04:08:49;101112.78;;;1.46;100.00
79645;BME280;69117;47.148;18.954;2024-02-14T04:11:51;101117.16;;;1.64;100.00
79645;BME280;69117;47.148;18.954;2024-02-14T04:14:53;101113.13;;;1.57;100.00
79645;BME280;69117;47.148;18.954;2024-02-14T04:17:55;101128.69;;;1.58;100.00
79645;BME280;69117;47.148;18.954;2024-02-14T04:20:56;101126.31;;;1.33;100.00
79645;BME280;69117;47.148;18.954;2024-02-14T04:23:58;101133.19;;;1.14;100.00
79645;BME280;69117;47.148;18.954;2024-02-14T04:27:00;101145.94;;;1.00;100.00
79645;BME280;69117;47.148;18.954;2024-02-14T04:30:05;101136.56;;;0.96;100.00
79645;BME280;69117;47.148;18.954;2024-02-14T04:33:07;101156.00;;;0.87;100.00
79645;BME280;69117;47.148;18.954;2024-02-14T04:36:14;101158.53;;;0.66;100.00
79645;BME280;69117;47.148;18.954;2024-02-14T04:39:16;101158.19;;;0.54;100.00
79645;BME280;69117;47.148;18.954;2024-02-14T04:42:18;101154.44;;;0.39;100.00
79645;BME280;69117;47.148;18.954;2024-02-14T04:45:20;101153.22;;;0.26;100.00
79645;BME280;69117;47.148;18.954;2024-02-14T04:48:21;101154.50;;;0.15;100.00
79645;BME280;69117;47.148;18.954;2024-02-14T04:51:23;101147.22;;;0.02;100.00
79645;BME280;69117;47.148;18.954;2024-02-14T04:54:25;101178.44;;;0.00;100.00
79645;BME280;69117;47.148;18.954;2024-02-14T04:57:27;101166.00;;;-0.15;100.00
79645;BME280;69117;47.148;18.954;2024-02-14T05:00:29;101173.06;;;-0.19;100.00
79645;BME280;69117;47.148;18.954;2024-02-14T05:03:31;101167.19;;;-0.24;100.00
79645;BME280;69117;47.148;18.954;2024-02-14T05:06:33;101168.59;;;-0.15;100.00
79645;BME280;69117;47.148;18.954;2024-02-14T05:09:35;101170.69;;;-0.02;100.00
79645;BME280;69117;47.148;18.954;2024-02-14T05:12:37;101172.91;;;-0.14;100.00
79645;BME280;69117;47.148;18.954;2024-02-14T05:15:38;101180.28;;;-0.04;100.00
79645;BME280;69117;47.148;18.954;2024-02-14T05:18:40;101181.00;;;0.23;100.00
79645;BME280;69117;47.148;18.954;2024-02-14T05:21:42;101179.69;;;0.35;100.00
79645;BME280;69117;47.148;18.954;2024-02-14T05:24:43;101184.97;;;0.10;100.00
79645;BME280;69117;47.148;18.954;2024-02-14T05:27:46;101193.50;;;-0.10;100.00
79645;BME280;69117;47.148;18.954;2024-02-14T05:30:48;101176.44;;;-0.17;100.00
79645;BME280;69117;47.148;18.954;2024-02-14T05:33:50;101194.03;;;0.00;100.00
79645;BME280;69117;47.148;18.954;2024-02-14T05:36:52;101200.84;;;0.48;100.00
79645;BME280;69117;47.148;18.954;2024-02-14T05:39:54;101203.47;;;0.48;100.00
79645;BME280;69117;47.148;18.954;2024-02-14T05:42:56;101197.13;;;0.55;100.00
79645;BME280;69117;47.148;18.954;2024-02-14T05:45:58;101218.31;;;0.68;100.00
79645;BME280;69117;47.148;18.954;2024-02-14T05:48:59;101212.97;;;0.71;100.00
79645;BME280;69117;47.148;18.954;2024-02-14T05:52:01;101217.03;;;0.78;100.00
79645;BME280;69117;47.148;18.954;2024-02-14T05:55:03;101215.53;;;0.95;100.00
79645;BME280;69117;47.148;18.954;2024-02-14T05:58:05;101212.13;;;0.93;100.00
79645;BME280;69117;47.148;18.954;2024-02-14T06:01:06;101220.97;;;0.88;100.00
79645;BME280;69117;47.148;18.954;2024-02-14T06:04:08;101231.50;;;0.85;100.00
79645;BME280;69117;47.148;18.954;2024-02-14T06:07:10;101221.47;;;0.76;100.00
79645;BME280;69117;47.148;18.954;2024-02-14T06:10:13;101234.25;;;0.81;100.00
79645;BME280;69117;47.148;18.954;2024-02-14T06:13:15;101230.03;;;0.78;100.00
79645;BME280;69117;47.148;18.954;2024-02-14T06:16:16;101238.50;;;0.83;100.00
79645;BME280;69117;47.148;18.954;2024-02-14T06:19:18;101224.91;;;0.77;100.00
79645;BME280;69117;47.148;18.954;2024-02-14T06:22:20;101238.03;;;0.74;100.00
79645;BME280;69117;47.148;18.954;2024-02-14T06:25:22;101237.69;;;0.81;100.00
79645;BME280;69117;47.148;18.954;2024-02-14T06:28:24;101240.69;;;0.94;100.00
79645;BME280;69117;47.148;18.954;2024-02-14T06:31:25;101243.78;;;1.04;100.00
79645;BME280;69117;47.148;18.954;2024-02-14T06:34:27;101250.41;;;1.11;100.00
79645;BME280;69117;47.148;18.954;2024-02-14T06:37:30;101246.00;;;1.13;100.00
79645;BME280;69117;47.148;18.954;2024-02-14T06:40:44;101245.66;;;1.21;100.00
79645;BME280;69117;47.148;18.954;2024-02-14T06:43:46;101259.91;;;1.34;100.00
79645;BME280;69117;47.148;18.954;2024-02-14T06:46:48;101261.78;;;1.51;100.00
79645;BME280;69117;47.148;18.954;2024-02-14T06:49:49;101261.13;;;1.66;100.00
79645;BME280;69117;47.148;18.954;2024-02-14T06:52:51;101262.25;;;1.81;100.00
79645;BME280;69117;47.148;18.954;2024-02-14T06:55:53;101267.19;;;1.87;100.00
79645;BME280;69117;47.148;18.954;2024-02-14T06:58:54;101278.84;;;1.99;100.00
79645;BME280;69117;47.148;18.954;2024-02-14T07:02:01;101277.69;;;2.06;100.00
79645;BME280;69117;47.148;18.954;2024-02-14T07:05:14;101266.06;;;2.13;100.00
79645;BME280;69117;47.148;18.954;2024-02-14T07:08:16;101277.63;;;2.26;100.00
79645;BME280;69117;47.148;18.954;2024-02-14T07:11:17;101273.84;;;2.34;100.00
79645;BME280;69117;47.148;18.954;2024-02-14T07:14:19;101289.09;;;2.62;100.00
79645;BME280;69117;47.148;18.954;2024-02-14T07:17:21;101289.31;;;2.76;100.00
79645;BME280;69117;47.148;18.954;2024-02-14T07:20:22;101290.75;;;3.01;100.00
79645;BME280;69117;47.148;18.954;2024-02-14T07:23:24;101281.81;;;3.06;100.00
79645;BME280;69117;47.148;18.954;2024-02-14T07:26:27;101286.03;;;3.26;100.00
79645;BME280;69117;47.148;18.954;2024-02-14T07:29:29;101298.59;;;3.37;100.00
79645;BME280;69117;47.148;18.954;2024-02-14T07:32:31;101295.28;;;3.51;100.00
79645;BME280;69117;47.148;18.954;2024-02-14T07:35:33;101287.25;;;3.55;100.00
79645;BME280;69117;47.148;18.954;2024-02-14T07:38:34;101296.78;;;3.74;100.00
79645;BME280;69117;47.148;18.954;2024-02-14T07:41:37;101305.19;;;3.96;100.00
79645;BME280;69117;47.148;18.954;2024-02-14T07:44:39;101293.38;;;4.06;100.00
79645;BME280;69117;47.148;18.954;2024-02-14T07:47:40;101296.03;;;4.22;100.00
79645;BME280;69117;47.148;18.954;2024-02-14T07:50:42;101293.59;;;4.35;100.00
79645;BME280;69117;47.148;18.954;2024-02-14T07:53:44;101296.69;;;4.59;100.00
79645;BME280;69117;47.148;18.954;2024-02-14T07:56:46;101304.66;;;4.73;100.00
79645;BME280;69117;47.148;18.954;2024-02-14T07:59:47;101304.75;;;4.88;100.00
79645;BME280;69117;47.148;18.954;2024-02-14T08:02:49;101303.41;;;4.96;100.00
79645;BME280;69117;47.148;18.954;2024-02-14T08:05:51;101308.28;;;5.18;100.00
79645;BME280;69117;47.148;18.954;2024-02-14T08:08:53;101311.22;;;5.28;100.00
79645;BME280;69117;47.148;18.954;2024-02-14T08:11:58;101315.50;;;5.45;100.00
79645;BME280;69117;47.148;18.954;2024-02-14T08:15:00;101312.25;;;5.56;100.00
79645;BME280;69117;47.148;18.954;2024-02-14T08:18:05;101314.81;;;5.57;100.00
79645;BME280;69117;47.148;18.954;2024-02-14T08:21:11;101319.63;;;5.79;100.00
79645;BME280;69117;47.148;18.954;2024-02-14T08:24:13;101316.47;;;5.88;100.00
79645;BME280;69117;47.148;18.954;2024-02-14T08:27:15;101313.09;;;6.02;100.00
79645;BME280;69117;47.148;18.954;2024-02-14T08:30:17;101323.13;;;6.24;100.00
79645;BME280;69117;47.148;18.954;2024-02-14T08:33:18;101316.94;;;6.39;100.00
79645;BME280;69117;47.148;18.954;2024-02-14T08:36:20;101306.06;;;6.31;100.00
79645;BME280;69117;47.148;18.954;2024-02-14T08:39:23;101302.25;;;6.51;100.00
79645;BME280;69117;47.148;18.954;2024-02-14T08:42:25;101312.06;;;6.62;100.00
79645;BME280;69117;47.148;18.954;2024-02-14T08:45:26;101326.38;;;6.99;100.00
79645;BME280;69117;47.148;18.954;2024-02-14T08:48:31;101322.34;;;6.94;100.00
79645;BME280;69117;47.148;18.954;2024-02-14T08:51:36;101333.88;;;7.05;100.00
79645;BME280;69117;47.148;18.954;2024-02-14T08:54:38;101321.41;;;7.22;100.00
79645;BME280;69117;47.148;18.954;2024-02-14T08:57:41;101324.09;;;7.34;100.00
79645;BME280;69117;47.148;18.954;2024-02-14T09:00:42;101321.81;;;7.43;100.00
79645;BME280;69117;47.148;18.954;2024-02-14T09:03:44;101320.88;;;7.44;100.00
79645;BME280;69117;47.148;18.954;2024-02-14T09:06:51;101319.13;;;7.57;100.00
79645;BME280;69117;47.148;18.954;2024-02-14T09:09:53;101332.09;;;7.60;100.00
79645;BME280;69117;47.148;18.954;2024-02-14T09:12:54;101320.94;;;7.56;100.00
79645;BME280;69117;47.148;18.954;2024-02-14T09:15:56;101308.97;;;7.78;100.00
79645;BME280;69117;47.148;18.954;2024-02-14T09:18:58;101324.78;;;7.91;100.00
79645;BME280;69117;47.148;18.954;2024-02-14T09:21:59;101318.38;;;7.55;100.00
79645;BME280;69117;47.148;18.954;2024-02-14T09:25:02;101312.03;;;7.97;100.00
79645;BME280;69117;47.148;18.954;2024-02-14T09:28:05;101317.22;;;8.50;100.00
79645;BME280;69117;47.148;18.954;2024-02-14T09:31:08;101311.97;;;8.50;100.00
79645;BME280;69117;47.148;18.954;2024-02-14T09:34:13;101315.66;;;8.47;100.00
79645;BME280;69117;47.148;18.954;2024-02-14T09:37:16;101308.34;;;8.77;100.00
79645;BME280;69117;47.148;18.954;2024-02-14T09:40:18;101310.84;;;7.76;100.00
79645;BME280;69117;47.148;18.954;2024-02-14T09:43:28;101318.97;;;7.86;100.00
79645;BME280;69117;47.148;18.954;2024-02-14T09:46:36;101313.72;;;7.98;100.00
79645;BME280;69117;47.148;18.954;2024-02-14T09:49:38;101311.94;;;8.37;100.00
79645;BME280;69117;47.148;18.954;2024-02-14T09:52:42;101305.59;;;8.78;100.00
79645;BME280;69117;47.148;18.954;2024-02-14T09:55:46;101303.13;;;9.25;100.00
79645;BME280;69117;47.148;18.954;2024-02-14T09:58:49;101301.16;;;9.15;100.00
79645;BME280;69117;47.148;18.954;2024-02-14T10:01:57;101309.91;;;9.16;100.00
79645;BME280;69117;47.148;18.954;2024-02-14T10:04:58;101304.69;;;9.03;100.00
79645;BME280;69117;47.148;18.954;2024-02-14T10:08:00;101303.34;;;8.48;100.00
79645;BME280;69117;47.148;18.954;2024-02-14T10:11:03;101299.84;;;8.97;100.00
79645;BME280;69117;47.148;18.954;2024-02-14T10:14:05;101305.47;;;8.80;100.00
79645;BME280;69117;47.148;18.954;2024-02-14T10:17:17;101301.13;;;8.91;100.00
79645;BME280;69117;47.148;18.954;2024-02-14T10:20:20;101298.00;;;8.74;100.00
79645;BME280;69117;47.148;18.954;2024-02-14T10:23:23;101297.78;;;9.13;100.00
79645;BME280;69117;47.148;18.954;2024-02-14T10:26:24;101281.00;;;8.90;100.00
79645;BME280;69117;47.148;18.954;2024-02-14T10:29:27;101295.03;;;8.91;100.00
79645;BME280;69117;47.148;18.954;2024-02-14T10:32:28;101292.63;;;8.88;100.00
79645;BME280;69117;47.148;18.954;2024-02-14T10:35:30;101294.75;;;8.70;100.00
79645;BME280;69117;47.148;18.954;2024-02-14T10:38:36;101278.03;;;8.95;100.00
79645;BME280;69117;47.148;18.954;2024-02-14T10:41:39;101272.31;;;9.25;100.00
79645;BME280;69117;47.148;18.954;2024-02-14T10:44:40;101295.22;;;9.25;100.00
79645;BME280;69117;47.148;18.954;2024-02-14T10:47:43;101293.06;;;9.54;100.00
79645;BME280;69117;47.148;18.954;2024-02-14T10:50:50;101281.06;;;10.07;100.00
79645;BME280;69117;47.148;18.954;2024-02-14T10:53:54;101284.13;;;10.37;100.00
79645;BME280;69117;47.148;18.954;2024-02-14T10:56:58;101268.03;;;10.40;100.00
79645;BME280;69117;47.148;18.954;2024-02-14T11:00:10;101278.13;;;11.12;100.00
79645;BME280;69117;47.148;18.954;2024-02-14T11:03:15;101274.38;;;10.71;100.00
79645;BME280;69117;47.148;18.954;2024-02-14T11:06:18;101262.13;;;10.81;100.00
79645;BME280;69117;47.148;18.954;2024-02-14T11:09:20;101268.25;;;11.46;100.00
79645;BME280;69117;47.148;18.954;2024-02-14T11:12:22;101273.09;;;11.09;100.00
79645;BME280;69117;47.148;18.954;2024-02-14T11:15:25;101269.94;;;11.15;100.00
79645;BME280;69117;47.148;18.954;2024-02-14T11:18:28;101250.97;;;12.35;100.00
79645;BME280;69117;47.148;18.954;2024-02-14T11:21:40;101261.59;;;12.35;96.62
79645;BME280;69117;47.148;18.954;2024-02-14T11:24:48;101269.56;;;12.45;99.10
79645;BME280;69117;47.148;18.954;2024-02-14T11:27:50;101257.88;;;13.07;91.92
79645;BME280;69117;47.148;18.954;2024-02-14T11:30:52;101258.97;;;13.05;97.54
79645;BME280;69117;47.148;18.954;2024-02-14T11:33:54;101251.22;;;12.63;93.22
79645;BME280;69117;47.148;18.954;2024-02-14T11:36:58;101248.41;;;11.94;99.45
79645;BME280;69117;47.148;18.954;2024-02-14T11:40:01;101242.66;;;11.88;100.00
79645;BME280;69117;47.148;18.954;2024-02-14T11:43:04;101243.91;;;12.46;95.75
79645;BME280;69117;47.148;18.954;2024-02-14T11:46:06;101235.47;;;12.81;91.41
79645;BME280;69117;47.148;18.954;2024-02-14T11:49:08;101234.22;;;12.75;92.87
79645;BME280;69117;47.148;18.954;2024-02-14T11:52:14;101236.94;;;12.45;93.59
79645;BME280;69117;47.148;18.954;2024-02-14T11:55:17;101242.66;;;12.19;94.52
79645;BME280;69117;47.148;18.954;2024-02-14T11:58:19;101233.66;;;11.80;93.66
79645;BME280;69117;47.148;18.954;2024-02-14T12:01:21;101229.28;;;12.61;91.03
79645;BME280;69117;47.148;18.954;2024-02-14T12:04:23;101231.16;;;12.90;91.77
79645;BME280;69117;47.148;18.954;2024-02-14T12:07:26;101219.19;;;13.05;93.64
79645;BME280;69117;47.148;18.954;2024-02-14T12:10:28;101228.66;;;14.13;86.04
79645;BME280;69117;47.148;18.954;2024-02-14T12:13:32;101234.91;;;14.21;85.40
79645;BME280;69117;47.148;18.954;2024-02-14T12:16:38;101231.84;;;14.26;85.02
79645;BME280;69117;47.148;18.954;2024-02-14T12:19:42;101225.63;;;14.08;82.84
79645;BME280;69117;47.148;18.954;2024-02-14T12:22:50;101219.97;;;14.76;80.80
79645;BME280;69117;47.148;18.954;2024-02-14T12:25:51;101226.38;;;14.55;80.33
79645;BME280;69117;47.148;18.954;2024-02-14T12:28:53;101233.22;;;15.03;78.64
79645;BME280;69117;47.148;18.954;2024-02-14T12:32:05;101217.41;;;14.01;84.91
79645;BME280;69117;47.148;18.954;2024-02-14T12:35:08;101217.88;;;13.67;86.56
79645;BME280;69117;47.148;18.954;2024-02-14T12:38:09;101210.91;;;14.41;86.43
79645;BME280;69117;47.148;18.954;2024-02-14T12:41:11;101211.44;;;14.17;82.94
79645;BME280;69117;47.148;18.954;2024-02-14T12:44:13;101211.50;;;13.50;82.95
79645;BME280;69117;47.148;18.954;2024-02-14T12:47:15;101196.03;;;13.93;80.99
79645;BME280;69117;47.148;18.954;2024-02-14T12:50:16;101199.63;;;12.87;86.32
79645;BME280;69117;47.148;18.954;2024-02-14T12:53:20;101191.72;;;12.46;82.12
79645;BME280;69117;47.148;18.954;2024-02-14T12:56:22;101187.84;;;11.37;86.31
79645;BME280;69117;47.148;18.954;2024-02-14T12:59:25;101180.69;;;10.75;87.81
79645;BME280;69117;47.148;18.954;2024-02-14T13:02:27;101189.22;;;10.67;90.80
79645;BME280;69117;47.148;18.954;2024-02-14T13:05:30;101182.88;;;11.02;94.64
79645;BME280;69117;47.148;18.954;2024-02-14T13:08:32;101184.38;;;10.84;91.10
79645;BME280;69117;47.148;18.954;2024-02-14T13:11:34;101166.06;;;10.92;87.73
79645;BME280;69117;47.148;18.954;2024-02-14T13:14:35;101167.31;;;10.76;86.58
79645;BME280;69117;47.148;18.954;2024-02-14T13:17:37;101167.25;;;10.67;88.55
79645;BME280;69117;47.148;18.954;2024-02-14T13:20:39;101160.78;;;10.60;89.84
79645;BME280;69117;47.148;18.954;2024-02-14T13:23:41;101167.56;;;10.41;87.54
79645;BME280;69117;47.148;18.954;2024-02-14T13:26:43;101176.41;;;10.63;92.39
79645;BME280;69117;47.148;18.954;2024-02-14T13:29:45;101175.91;;;10.58;91.48
79645;BME280;69117;47.148;18.954;2024-02-14T13:32:47;101175.94;;;10.46;90.83
79645;BME280;69117;47.148;18.954;2024-02-14T13:35:49;101175.91;;;10.58;94.03
79645;BME280;69117;47.148;18.954;2024-02-14T13:38:51;101170.78;;;10.56;89.27
79645;BME280;69117;47.148;18.954;2024-02-14T13:41:53;101171.34;;;10.60;88.07
79645;BME280;69117;47.148;18.954;2024-02-14T13:44:56;101177.38;;;10.50;92.00
79645;BME280;69117;47.148;18.954;2024-02-14T13:48:03;101149.31;;;10.38;94.61
79645;BME280;69117;47.148;18.954;2024-02-14T13:51:09;101173.19;;;10.37;95.61
79645;BME280;69117;47.148;18.954;2024-02-14T13:54:11;101176.56;;;10.39;99.19
79645;BME280;69117;47.148;18.954;2024-02-14T13:57:13;101170.56;;;10.37;100.00
79645;BME280;69117;47.148;18.954;2024-02-14T14:00:15;101174.03;;;10.37;100.00
79645;BME280;69117;47.148;18.954;2024-02-14T14:03:16;101172.38;;;10.36;96.60
79645;BME280;69117;47.148;18.954;2024-02-14T14:06:18;101168.28;;;10.21;100.00
79645;BME280;69117;47.148;18.954;2024-02-14T14:09:20;101171.63;;;10.34;100.00
79645;BME280;69117;47.148;18.954;2024-02-14T14:12:22;101177.31;;;10.29;100.00
79645;BME280;69117;47.148;18.954;2024-02-14T14:15:24;101174.28;;;10.23;100.00
79645;BME280;69117;47.148;18.954;2024-02-14T14:18:27;101164.22;;;10.17;100.00
79645;BME280;69117;47.148;18.954;2024-02-14T14:21:29;101159.63;;;10.07;100.00
79645;BME280;69117;47.148;18.954;2024-02-14T14:24:31;101173.06;;;10.04;100.00
79645;BME280;69117;47.148;18.954;2024-02-14T14:27:33;101151.50;;;9.88;100.00
79645;BME280;69117;47.148;18.954;2024-02-14T14:30:36;101166.97;;;9.93;100.00
79645;BME280;69117;47.148;18.954;2024-02-14T14:33:38;101165.50;;;9.89;100.00
79645;BME280;69117;47.148;18.954;2024-02-14T14:36:40;101165.41;;;9.79;100.00
79645;BME280;69117;47.148;18.954;2024-02-14T14:39:42;101163.25;;;9.84;100.00
79645;BME280;69117;47.148;18.954;2024-02-14T14:42:45;101161.78;;;9.80;100.00
79645;BME280;69117;47.148;18.954;2024-02-14T14:45:47;101163.59;;;9.79;100.00
79645;BME280;69117;47.148;18.954;2024-02-14T14:48:51;101168.78;;;9.81;100.00
79645;BME280;69117;47.148;18.954;2024-02-14T14:51:53;101172.09;;;9.83;100.00
79645;BME280;69117;47.148;18.954;2024-02-14T14:54:55;101171.88;;;9.86;100.00
79645;BME280;69117;47.148;18.954;2024-02-14T14:58:12;101166.84;;;9.83;100.00
79645;BME280;69117;47.148;18.954;2024-02-14T15:01:14;101180.41;;;9.90;100.00
79645;BME280;69117;47.148;18.954;2024-02-14T15:04:16;101175.00;;;9.91;100.00
79645;BME280;69117;47.148;18.954;2024-02-14T15:07:20;101180.41;;;9.90;100.00
79645;BME280;69117;47.148;18.954;2024-02-14T15:10:22;101173.56;;;9.87;100.00
79645;BME280;69117;47.148;18.954;2024-02-14T15:13:24;101178.34;;;9.82;100.00
79645;BME280;69117;47.148;18.954;2024-02-14T15:16:26;101167.78;;;9.71;100.00
79645;BME280;69117;47.148;18.954;2024-02-14T15:19:28;101182.78;;;9.70;100.00
79645;BME280;69117;47.148;18.954;2024-02-14T15:22:30;101182.66;;;9.60;100.00
79645;BME280;69117;47.148;18.954;2024-02-14T15:25:32;101180.13;;;9.48;100.00
79645;BME280;69117;47.148;18.954;2024-02-14T15:28:33;101172.16;;;9.36;100.00
79645;BME280;69117;47.148;18.954;2024-02-14T15:31:41;101188.47;;;9.30;100.00
79645;BME280;69117;47.148;18.954;2024-02-14T15:35:01;101186.38;;;9.23;100.00
79645;BME280;69117;47.148;18.954;2024-02-14T15:38:06;101194.88;;;9.15;100.00
79645;BME280;69117;47.148;18.954;2024-02-14T15:41:07;101183.56;;;9.02;100.00